sensor_id;sensor_type;location;lat;lon;timestamp;pressure;altitude;pressure_sealevel;temperature;humidity
61394;BME280;48555;50.952;-0.120;2023-02-28T00:00:09;102629.56;;;5.79;69.93
61394;BME280;48555;50.952;-0.120;2023-02-28T00:02:39;102629.47;;;5.85;69.76
61394;BME280;48555;50.952;-0.120;2023-02-28T00:05:06;102619.25;;;5.78;69.75
61394;BME280;48555;50.952;-0.120;2023-02-28T00:07:32;102619.19;;;5.79;69.46
61394;BME280;48555;50.952;-0.120;2023-02-28T00:09:57;102625.28;;;5.78;70.02
61394;BME280;48555;50.952;-0.120;2023-02-28T00:12:23;102638.19;;;5.83;69.80
61394;BME280;48555;50.952;-0.120;2023-02-28T00:14:49;102630.59;;;5.72;70.37
61394;BME280;48555;50.952;-0.120;2023-02-28T00:17:14;102635.88;;;5.67;71.14
61394;BME280;48555;50.952;-0.120;2023-02-28T00:19:40;102633.53;;;5.57;71.22
61394;BME280;48555;50.952;-0.120;2023-02-28T00:22:05;102634.44;;;5.53;71.62
61394;BME280;48555;50.952;-0.120;2023-02-28T00:24:30;102637.94;;;5.52;72.06
61394;BME280;48555;50.952;-0.120;2023-02-28T00:26:56;102633.41;;;5.63;71.97
61394;BME280;48555;50.952;-0.120;2023-02-28T00:29:21;102631.59;;;5.66;71.45
61394;BME280;48555;50.952;-0.120;2023-02-28T00:31:46;102630.03;;;5.58;72.21
61394;BME280;48555;50.952;-0.120;2023-02-28T00:34:12;102638.38;;;5.74;71.48
61394;BME280;48555;50.952;-0.120;2023-02-28T00:36:37;102638.31;;;5.75;71.10
61394;BME280;48555;50.952;-0.120;2023-02-28T00:39:03;102632.91;;;5.86;70.90
61394;BME280;48555;50.952;-0.120;2023-02-28T00:41:29;102645.75;;;5.94;70.81
61394;BME280;48555;50.952;-0.120;2023-02-28T00:43:55;102650.41;;;5.76;71.28
61394;BME280;48555;50.952;-0.120;2023-02-28T00:46:20;102657.81;;;5.53;72.19
61394;BME280;48555;50.952;-0.120;2023-02-28T00:48:45;102634.09;;;5.71;71.23
61394;BME280;48555;50.952;-0.120;2023-02-28T00:51:11;102652.06;;;5.80;71.14
61394;BME280;48555;50.952;-0.120;2023-02-28T00:53:36;102647.47;;;5.95;71.00
61394;BME280;48555;50.952;-0.120;2023-02-28T00:56:02;102649.97;;;5.99;70.47
61394;BME280;48555;50.952;-0.120;2023-02-28T00:58:27;102649.03;;;6.02;70.60
61394;BME280;48555;50.952;-0.120;2023-02-28T01:00:53;102646.56;;;5.97;70.48
61394;BME280;48555;50.952;-0.120;2023-02-28T01:03:19;102639.28;;;5.71;71.46
61394;BME280;48555;50.952;-0.120;2023-02-28T01:05:46;102644.91;;;5.93;70.73
61394;BME280;48555;50.952;-0.120;2023-02-28T01:08:12;102640.81;;;5.38;72.69
61394;BME280;48555;50.952;-0.120;2023-02-28T01:10:38;102641.91;;;5.69;72.06
61394;BME280;48555;50.952;-0.120;2023-02-28T01:13:04;102642.47;;;5.42;72.43
61394;BME280;48555;50.952;-0.120;2023-02-28T01:15:29;102636.25;;;5.51;72.28
61394;BME280;48555;50.952;-0.120;2023-02-28T01:17:57;102642.19;;;5.11;73.50
61394;BME280;48555;50.952;-0.120;2023-02-28T01:20:23;102644.97;;;5.46;72.70
61394;BME280;48555;50.952;-0.120;2023-02-28T01:22:48;102636.31;;;5.47;72.48
61394;BME280;48555;50.952;-0.120;2023-02-28T01:25:14;102649.25;;;5.49;72.33
61394;BME280;48555;50.952;-0.120;2023-02-28T01:27:39;102647.41;;;5.54;71.80
61394;BME280;48555;50.952;-0.120;2023-02-28T01:30:06;102651.63;;;5.60;71.76
61394;BME280;48555;50.952;-0.120;2023-02-28T01:32:32;102649.25;;;5.49;71.68
61394;BME280;48555;50.952;-0.120;2023-02-28T01:34:57;102657.06;;;5.47;72.04
61394;BME280;48555;50.952;-0.120;2023-02-28T01:37:22;102653.75;;;5.39;72.04
61394;BME280;48555;50.952;-0.120;2023-02-28T01:39:48;102655.75;;;5.27;72.73
61394;BME280;48555;50.952;-0.120;2023-02-28T01:42:13;102648.22;;;5.13;73.30
61394;BME280;48555;50.952;-0.120;2023-02-28T01:44:59;102660.50;;;5.03;73.90
61394;BME280;48555;50.952;-0.120;2023-02-28T01:47:30;102659.09;;;4.82;74.57
61394;BME280;48555;50.952;-0.120;2023-02-28T01:49:57;102658.69;;;5.07;73.88
61394;BME280;48555;50.952;-0.120;2023-02-28T01:52:23;102655.44;;;4.95;74.02
61394;BME280;48555;50.952;-0.120;2023-02-28T01:54:52;102633.53;;;4.62;74.89
61394;BME280;48555;50.952;-0.120;2023-02-28T01:57:24;102654.06;;;4.74;74.98
61394;BME280;48555;50.952;-0.120;2023-02-28T01:59:57;102651.25;;;4.88;74.62
61394;BME280;48555;50.952;-0.120;2023-02-28T02:02:24;102632.09;;;4.95;73.75
61394;BME280;48555;50.952;-0.120;2023-02-28T02:05:06;102638.06;;;5.00;73.93
61394;BME280;48555;50.952;-0.120;2023-02-28T02:07:35;102641.47;;;5.04;73.56
61394;BME280;48555;50.952;-0.120;2023-02-28T02:10:13;102638.75;;;5.09;73.32
61394;BME280;48555;50.952;-0.120;2023-02-28T02:15:25;102638.75;;;5.09;72.91
61394;BME280;48555;50.952;-0.120;2023-02-28T02:17:56;102648.31;;;5.07;73.36
61394;BME280;48555;50.952;-0.120;2023-02-28T02:25:40;102641.41;;;5.06;73.31
61394;BME280;48555;50.952;-0.120;2023-02-28T02:28:22;102648.22;;;5.11;72.95
61394;BME280;48555;50.952;-0.120;2023-02-28T02:31:17;102640.44;;;5.13;72.98
61394;BME280;48555;50.952;-0.120;2023-02-28T02:34:23;102644.78;;;5.11;73.12
61394;BME280;48555;50.952;-0.120;2023-02-28T02:36:58;102647.31;;;5.14;72.85
61394;BME280;48555;50.952;-0.120;2023-02-28T02:39:34;102642.41;;;4.98;73.88
61394;BME280;48555;50.952;-0.120;2023-02-28T02:42:11;102647.66;;;4.95;73.82
61394;BME280;48555;50.952;-0.120;2023-02-28T02:44:46;102649.56;;;4.86;74.37
61394;BME280;48555;50.952;-0.120;2023-02-28T02:47:17;102641.78;;;4.86;74.05
61394;BME280;48555;50.952;-0.120;2023-02-28T02:49:49;102646.91;;;4.89;73.64
61394;BME280;48555;50.952;-0.120;2023-02-28T02:52:18;102652.09;;;4.89;73.48
61394;BME280;48555;50.952;-0.120;2023-02-28T02:54:47;102651.19;;;4.91;73.11
61394;BME280;48555;50.952;-0.120;2023-02-28T02:57:24;102633.06;;;4.91;73.15
61394;BME280;48555;50.952;-0.120;2023-02-28T02:59:51;102640.78;;;4.94;73.57
61394;BME280;48555;50.952;-0.120;2023-02-28T03:02:20;102625.22;;;4.93;73.82
61394;BME280;48555;50.952;-0.120;2023-02-28T03:04:52;102640.91;;;4.85;74.95
61394;BME280;48555;50.952;-0.120;2023-02-28T03:07:19;102642.53;;;4.91;74.47
61394;BME280;48555;50.952;-0.120;2023-02-28T03:09:55;102650.47;;;4.82;75.37
61394;BME280;48555;50.952;-0.120;2023-02-28T03:12:23;102653.88;;;4.85;74.98
61394;BME280;48555;50.952;-0.120;2023-02-28T03:15:20;102647.81;;;4.86;74.84
61394;BME280;48555;50.952;-0.120;2023-02-28T03:17:59;102651.16;;;4.94;74.35
61394;BME280;48555;50.952;-0.120;2023-02-28T03:20:41;102650.38;;;4.89;74.26
61394;BME280;48555;50.952;-0.120;2023-02-28T03:23:21;102655.41;;;4.97;74.07
61394;BME280;48555;50.952;-0.120;2023-02-28T03:31:03;102648.56;;;4.93;74.66
61394;BME280;48555;50.952;-0.120;2023-02-28T03:34:21;102654.94;;;4.73;76.33
61394;BME280;48555;50.952;-0.120;2023-02-28T03:36:52;102648.78;;;4.79;76.07
61394;BME280;48555;50.952;-0.120;2023-02-28T03:39:23;102652.53;;;4.63;76.95
61394;BME280;48555;50.952;-0.120;2023-02-28T03:42:02;102649.78;;;4.72;76.52
61394;BME280;48555;50.952;-0.120;2023-02-28T03:44:38;102647.16;;;4.73;76.55
61394;BME280;48555;50.952;-0.120;2023-02-28T03:47:09;102647.41;;;4.58;77.16
61394;BME280;48555;50.952;-0.120;2023-02-28T03:49:45;102656.00;;;4.62;77.16
61394;BME280;48555;50.952;-0.120;2023-02-28T03:52:13;102642.28;;;4.57;77.59
61394;BME280;48555;50.952;-0.120;2023-02-28T03:54:45;102645.59;;;4.65;77.05
61394;BME280;48555;50.952;-0.120;2023-02-28T03:57:27;102646.34;;;4.71;76.47
61394;BME280;48555;50.952;-0.120;2023-02-28T04:00:00;102650.75;;;4.66;76.86
61394;BME280;48555;50.952;-0.120;2023-02-28T04:02:29;102640.66;;;4.49;77.17
61394;BME280;48555;50.952;-0.120;2023-02-28T04:04:55;102650.84;;;4.59;77.15
61394;BME280;48555;50.952;-0.120;2023-02-28T04:07:20;102664.59;;;4.64;77.12
61394;BME280;48555;50.952;-0.120;2023-02-28T04:09:46;102661.50;;;4.40;78.71
61394;BME280;48555;50.952;-0.120;2023-02-28T04:12:11;102666.13;;;4.20;79.50
61394;BME280;48555;50.952;-0.120;2023-02-28T04:14:37;102675.44;;;4.33;79.20
61394;BME280;48555;50.952;-0.120;2023-02-28T04:17:02;102667.34;;;3.94;81.50
61394;BME280;48555;50.952;-0.120;2023-02-28T04:19:27;102666.13;;;4.21;80.11
61394;BME280;48555;50.952;-0.120;2023-02-28T04:21:53;102666.81;;;4.32;79.98
61394;BME280;48555;50.952;-0.120;2023-02-28T04:24:21;102675.59;;;4.22;80.39
61394;BME280;48555;50.952;-0.120;2023-02-28T04:26:53;102672.06;;;4.28;80.34
61394;BME280;48555;50.952;-0.120;2023-02-28T04:29:29;102666.88;;;4.28;80.56
61394;BME280;48555;50.952;-0.120;2023-02-28T04:31:55;102661.38;;;3.89;82.36
61394;BME280;48555;50.952;-0.120;2023-02-28T04:34:23;102650.13;;;3.90;82.81
61394;BME280;48555;50.952;-0.120;2023-02-28T04:36:49;102654.34;;;4.00;82.97
61394;BME280;48555;50.952;-0.120;2023-02-28T04:39:16;102649.34;;;3.86;83.10
61394;BME280;48555;50.952;-0.120;2023-02-28T04:41:44;102653.44;;;4.00;83.16
61394;BME280;48555;50.952;-0.120;2023-02-28T04:44:09;102657.72;;;4.04;82.91
61394;BME280;48555;50.952;-0.120;2023-02-28T04:46:34;102655.19;;;3.99;83.07
61394;BME280;48555;50.952;-0.120;2023-02-28T04:49:00;102664.44;;;4.17;82.25
61394;BME280;48555;50.952;-0.120;2023-02-28T04:51:25;102665.28;;;4.19;81.95
61394;BME280;48555;50.952;-0.120;2023-02-28T04:53:52;102660.56;;;3.85;84.38
61394;BME280;48555;50.952;-0.120;2023-02-28T04:56:18;102669.03;;;3.97;84.24
61394;BME280;48555;50.952;-0.120;2023-02-28T04:58:44;102664.94;;;3.80;85.48
61394;BME280;48555;50.952;-0.120;2023-02-28T05:01:22;102669.13;;;3.89;85.28
61394;BME280;48555;50.952;-0.120;2023-02-28T05:03:48;102672.50;;;3.96;85.30
61394;BME280;48555;50.952;-0.120;2023-02-28T05:06:14;102675.94;;;3.96;85.27
61394;BME280;48555;50.952;-0.120;2023-02-28T05:08:39;102663.72;;;4.07;84.59
61394;BME280;48555;50.952;-0.120;2023-02-28T05:11:30;102667.50;;;3.82;85.77
61394;BME280;48555;50.952;-0.120;2023-02-28T05:14:10;102666.63;;;3.83;86.70
61394;BME280;48555;50.952;-0.120;2023-02-28T05:16:35;102658.22;;;3.66;87.44
61394;BME280;48555;50.952;-0.120;2023-02-28T05:19:01;102668.47;;;3.73;87.64
61394;BME280;48555;50.952;-0.120;2023-02-28T05:21:33;102666.59;;;3.86;86.81
61394;BME280;48555;50.952;-0.120;2023-02-28T05:24:01;102656.41;;;3.74;87.20
61394;BME280;48555;50.952;-0.120;2023-02-28T05:26:27;102652.94;;;3.73;87.24
61394;BME280;48555;50.952;-0.120;2023-02-28T05:28:53;102662.44;;;3.74;87.35
61394;BME280;48555;50.952;-0.120;2023-02-28T05:31:19;102667.81;;;3.56;88.05
61394;BME280;48555;50.952;-0.120;2023-02-28T05:33:44;102661.69;;;3.63;88.31
61394;BME280;48555;50.952;-0.120;2023-02-28T05:36:09;102667.75;;;3.62;88.37
61394;BME280;48555;50.952;-0.120;2023-02-28T05:38:35;102673.75;;;3.64;88.19
61394;BME280;48555;50.952;-0.120;2023-02-28T05:41:05;102675.41;;;3.70;87.87
61394;BME280;48555;50.952;-0.120;2023-02-28T05:43:30;102668.41;;;3.78;87.25
61394;BME280;48555;50.952;-0.120;2023-02-28T05:45:55;102676.16;;;3.79;87.66
61394;BME280;48555;50.952;-0.120;2023-02-28T05:48:21;102674.53;;;3.74;87.59
61394;BME280;48555;50.952;-0.120;2023-02-28T05:50:46;102685.28;;;3.35;89.76
61394;BME280;48555;50.952;-0.120;2023-02-28T05:53:11;102681.75;;;3.41;90.05
61394;BME280;48555;50.952;-0.120;2023-02-28T05:55:37;102687.84;;;3.38;90.88
61394;BME280;48555;50.952;-0.120;2023-02-28T05:58:03;102680.06;;;3.40;90.81
61394;BME280;48555;50.952;-0.120;2023-02-28T06:00:28;102683.59;;;3.33;90.92
61394;BME280;48555;50.952;-0.120;2023-02-28T06:02:54;102686.28;;;3.24;91.72
61394;BME280;48555;50.952;-0.120;2023-02-28T06:05:22;102688.56;;;3.51;90.74
61394;BME280;48555;50.952;-0.120;2023-02-28T06:07:47;102695.34;;;3.61;90.09
61394;BME280;48555;50.952;-0.120;2023-02-28T06:10:13;102696.25;;;3.59;90.27
61394;BME280;48555;50.952;-0.120;2023-02-28T06:12:39;102699.13;;;3.31;91.66
61394;BME280;48555;50.952;-0.120;2023-02-28T06:15:07;102701.63;;;3.39;91.89
61394;BME280;48555;50.952;-0.120;2023-02-28T06:17:32;102693.66;;;3.57;90.72
61394;BME280;48555;50.952;-0.120;2023-02-28T06:19:58;102703.91;;;3.68;90.48
61394;BME280;48555;50.952;-0.120;2023-02-28T06:22:23;102689.19;;;3.72;90.10
61394;BME280;48555;50.952;-0.120;2023-02-28T06:24:48;102690.09;;;3.69;90.44
61394;BME280;48555;50.952;-0.120;2023-02-28T06:27:14;102697.72;;;3.80;90.21
61394;BME280;48555;50.952;-0.120;2023-02-28T06:29:39;102690.84;;;3.76;90.26
61394;BME280;48555;50.952;-0.120;2023-02-28T06:32:05;102688.22;;;3.79;90.05
61394;BME280;48555;50.952;-0.120;2023-02-28T06:34:31;102688.19;;;3.82;89.98
61394;BME280;48555;50.952;-0.120;2023-02-28T06:36:56;102679.03;;;3.55;91.16
61394;BME280;48555;50.952;-0.120;2023-02-28T06:39:22;102673.91;;;3.53;91.21
61394;BME280;48555;50.952;-0.120;2023-02-28T06:41:47;102687.84;;;3.37;92.41
61394;BME280;48555;50.952;-0.120;2023-02-28T06:44:16;102684.31;;;3.46;92.41
61394;BME280;48555;50.952;-0.120;2023-02-28T06:46:43;102680.94;;;3.39;92.45
61394;BME280;48555;50.952;-0.120;2023-02-28T06:49:09;102684.41;;;3.36;92.97
61394;BME280;48555;50.952;-0.120;2023-02-28T06:51:37;102684.31;;;3.44;92.57
61394;BME280;48555;50.952;-0.120;2023-02-28T06:54:04;102690.38;;;3.43;92.99
61394;BME280;48555;50.952;-0.120;2023-02-28T06:56:29;102692.00;;;3.53;92.07
61394;BME280;48555;50.952;-0.120;2023-02-28T06:58:55;102689.47;;;3.46;92.42
61394;BME280;48555;50.952;-0.120;2023-02-28T07:01:21;102689.38;;;3.56;92.13
61394;BME280;48555;50.952;-0.120;2023-02-28T07:03:50;102705.00;;;3.46;92.55
61394;BME280;48555;50.952;-0.120;2023-02-28T07:06:18;102702.16;;;3.67;92.17
61394;BME280;48555;50.952;-0.120;2023-02-28T07:08:44;102703.59;;;3.94;90.38
61394;BME280;48555;50.952;-0.120;2023-02-28T07:11:10;102695.91;;;3.85;90.50
61394;BME280;48555;50.952;-0.120;2023-02-28T07:13:36;102700.31;;;3.80;90.69
61394;BME280;48555;50.952;-0.120;2023-02-28T07:16:07;102690.75;;;3.86;90.76
61394;BME280;48555;50.952;-0.120;2023-02-28T07:18:33;102707.19;;;3.79;90.96
61394;BME280;48555;50.952;-0.120;2023-02-28T07:21:01;102705.53;;;3.77;91.08
61394;BME280;48555;50.952;-0.120;2023-02-28T07:23:27;102702.75;;;3.91;91.01
61394;BME280;48555;50.952;-0.120;2023-02-28T07:25:52;102714.03;;;3.86;90.93
61394;BME280;48555;50.952;-0.120;2023-02-28T07:28:18;102722.50;;;3.99;90.25
61394;BME280;48555;50.952;-0.120;2023-02-28T07:30:43;102705.31;;;3.94;90.42
61394;BME280;48555;50.952;-0.120;2023-02-28T07:33:09;102714.63;;;4.07;90.44
61394;BME280;48555;50.952;-0.120;2023-02-28T07:35:34;102719.22;;;4.50;89.56
61394;BME280;48555;50.952;-0.120;2023-02-28T07:38:00;102725.88;;;4.68;87.28
61394;BME280;48555;50.952;-0.120;2023-02-28T07:40:25;102722.41;;;4.67;87.04
61394;BME280;48555;50.952;-0.120;2023-02-28T07:42:51;102721.66;;;5.15;86.01
61394;BME280;48555;50.952;-0.120;2023-02-28T07:45:17;102718.44;;;5.49;83.38
61394;BME280;48555;50.952;-0.120;2023-02-28T07:47:43;102723.28;;;5.67;82.27
61394;BME280;48555;50.952;-0.120;2023-02-28T07:50:11;102723.16;;;6.18;80.11
61394;BME280;48555;50.952;-0.120;2023-02-28T07:52:37;102731.16;;;6.48;78.49
61394;BME280;48555;50.952;-0.120;2023-02-28T07:55:04;102718.72;;;6.60;76.75
61394;BME280;48555;50.952;-0.120;2023-02-28T07:57:30;102722.81;;;6.32;76.98
61394;BME280;48555;50.952;-0.120;2023-02-28T07:59:55;102721.91;;;5.92;78.54
61394;BME280;48555;50.952;-0.120;2023-02-28T08:02:20;102709.75;;;5.51;80.55
61394;BME280;48555;50.952;-0.120;2023-02-28T08:04:46;102711.56;;;5.47;80.13
61394;BME280;48555;50.952;-0.120;2023-02-28T08:07:13;102720.72;;;5.19;82.05
61394;BME280;48555;50.952;-0.120;2023-02-28T08:09:39;102727.97;;;5.00;83.01
61394;BME280;48555;50.952;-0.120;2023-02-28T08:12:05;102729.34;;;5.21;82.27
61394;BME280;48555;50.952;-0.120;2023-02-28T08:14:31;102728.16;;;5.37;81.61
61394;BME280;48555;50.952;-0.120;2023-02-28T08:16:56;102737.63;;;5.40;81.58
61394;BME280;48555;50.952;-0.120;2023-02-28T08:19:21;102723.75;;;5.42;81.42
61394;BME280;48555;50.952;-0.120;2023-02-28T08:21:47;102718.41;;;5.02;82.68
61394;BME280;48555;50.952;-0.120;2023-02-28T08:24:12;102734.91;;;4.96;83.99
61394;BME280;48555;50.952;-0.120;2023-02-28T08:26:38;102727.53;;;5.24;83.31
61394;BME280;48555;50.952;-0.120;2023-02-28T08:29:03;102732.03;;;5.15;82.84
61394;BME280;48555;50.952;-0.120;2023-02-28T08:31:28;102734.00;;;4.99;83.50
61394;BME280;48555;50.952;-0.120;2023-02-28T08:33:54;102738.06;;;5.15;82.88
61394;BME280;48555;50.952;-0.120;2023-02-28T08:36:22;102732.44;;;5.41;82.01
61394;BME280;48555;50.952;-0.120;2023-02-28T08:38:48;102733.69;;;5.17;82.58
61394;BME280;48555;50.952;-0.120;2023-02-28T08:41:14;102738.25;;;5.53;81.73
61394;BME280;48555;50.952;-0.120;2023-02-28T08:43:39;102735.41;;;5.66;81.03
61394;BME280;48555;50.952;-0.120;2023-02-28T08:46:06;102732.56;;;5.79;81.31
61394;BME280;48555;50.952;-0.120;2023-02-28T08:48:34;102739.31;;;5.87;80.10
61394;BME280;48555;50.952;-0.120;2023-02-28T08:51:08;102738.28;;;5.98;79.81
61394;BME280;48555;50.952;-0.120;2023-02-28T08:53:38;102734.41;;;6.17;78.97
61394;BME280;48555;50.952;-0.120;2023-02-28T08:56:07;102732.78;;;6.52;78.07
61394;BME280;48555;50.952;-0.120;2023-02-28T08:58:33;102724.41;;;6.76;76.46
61394;BME280;48555;50.952;-0.120;2023-02-28T09:00:59;102715.41;;;6.91;76.16
61394;BME280;48555;50.952;-0.120;2023-02-28T09:03:25;102728.47;;;7.22;74.33
61394;BME280;48555;50.952;-0.120;2023-02-28T09:05:56;102713.88;;;7.17;73.32
61394;BME280;48555;50.952;-0.120;2023-02-28T09:08:23;102716.56;;;7.14;73.14
61394;BME280;48555;50.952;-0.120;2023-02-28T09:10:49;102728.13;;;7.02;73.05
61394;BME280;48555;50.952;-0.120;2023-02-28T09:13:15;102718.66;;;6.99;73.06
61394;BME280;48555;50.952;-0.120;2023-02-28T09:15:40;102709.31;;;7.25;72.08
61394;BME280;48555;50.952;-0.120;2023-02-28T09:18:05;102715.28;;;6.96;72.87
61394;BME280;48555;50.952;-0.120;2023-02-28T09:20:31;102713.97;;;6.78;73.55
61394;BME280;48555;50.952;-0.120;2023-02-28T09:22:56;102709.75;;;7.08;73.13
61394;BME280;48555;50.952;-0.120;2023-02-28T09:25:21;102708.19;;;7.35;72.40
61394;BME280;48555;50.952;-0.120;2023-02-28T09:27:47;102713.59;;;7.27;71.30
61394;BME280;48555;50.952;-0.120;2023-02-28T09:30:13;102712.72;;;7.60;70.56
61394;BME280;48555;50.952;-0.120;2023-02-28T09:32:38;102693.34;;;7.39;70.96
61394;BME280;48555;50.952;-0.120;2023-02-28T09:35:04;102711.16;;;7.54;70.16
61394;BME280;48555;50.952;-0.120;2023-02-28T09:37:30;102706.50;;;7.65;70.51
61394;BME280;48555;50.952;-0.120;2023-02-28T09:39:56;102703.78;;;8.00;69.00
61394;BME280;48555;50.952;-0.120;2023-02-28T09:42:30;102707.06;;;8.06;68.90
61394;BME280;48555;50.952;-0.120;2023-02-28T09:44:58;102717.88;;;8.22;68.37
61394;BME280;48555;50.952;-0.120;2023-02-28T09:47:36;102705.47;;;7.71;68.45
61394;BME280;48555;50.952;-0.120;2023-02-28T09:52:52;102710.53;;;8.07;67.94
61394;BME280;48555;50.952;-0.120;2023-02-28T09:55:29;102705.88;;;8.16;67.78
61394;BME280;48555;50.952;-0.120;2023-02-28T09:57:56;102710.03;;;8.24;67.89
61394;BME280;48555;50.952;-0.120;2023-02-28T10:00:32;102719.09;;;8.10;67.36
61394;BME280;48555;50.952;-0.120;2023-02-28T10:05:37;102713.13;;;8.35;66.95
61394;BME280;48555;50.952;-0.120;2023-02-28T10:10:45;102711.50;;;8.03;67.22
61394;BME280;48555;50.952;-0.120;2023-02-28T10:13:16;102711.88;;;7.59;67.82
61394;BME280;48555;50.952;-0.120;2023-02-28T10:15:46;102717.75;;;7.35;69.45
61394;BME280;48555;50.952;-0.120;2023-02-28T10:18:15;102715.81;;;7.74;67.94
61394;BME280;48555;50.952;-0.120;2023-02-28T10:20:45;102713.09;;;7.13;69.00
61394;BME280;48555;50.952;-0.120;2023-02-28T10:23:21;102709.31;;;7.25;69.72
61394;BME280;48555;50.952;-0.120;2023-02-28T10:26:14;102711.81;;;7.61;68.39
61394;BME280;48555;50.952;-0.120;2023-02-28T10:28:43;102702.44;;;7.24;69.14
61394;BME280;48555;50.952;-0.120;2023-02-28T10:31:15;102707.28;;;7.03;69.80
61394;BME280;48555;50.952;-0.120;2023-02-28T10:33:42;102704.94;;;6.93;70.47
61394;BME280;48555;50.952;-0.120;2023-02-28T10:36:12;102694.22;;;6.71;71.02
61394;BME280;48555;50.952;-0.120;2023-02-28T10:38:39;102696.13;;;7.33;70.18
61394;BME280;48555;50.952;-0.120;2023-02-28T10:41:12;102700.00;;;7.49;69.25
61394;BME280;48555;50.952;-0.120;2023-02-28T10:43:40;102693.66;;;7.59;68.87
61394;BME280;48555;50.952;-0.120;2023-02-28T10:51:19;102680.50;;;7.64;67.88
61394;BME280;48555;50.952;-0.120;2023-02-28T10:53:52;102678.16;;;7.86;68.00
61394;BME280;48555;50.952;-0.120;2023-02-28T10:56:22;102693.59;;;8.20;67.69
61394;BME280;48555;50.952;-0.120;2023-02-28T11:03:56;102679.84;;;7.24;70.23
61394;BME280;48555;50.952;-0.120;2023-02-28T11:06:30;102674.31;;;7.68;69.81
61394;BME280;48555;50.952;-0.120;2023-02-28T11:08:59;102672.00;;;7.88;69.38
61394;BME280;48555;50.952;-0.120;2023-02-28T11:11:28;102663.38;;;7.86;69.04
61394;BME280;48555;50.952;-0.120;2023-02-28T11:14:03;102665.44;;;7.75;68.81
61394;BME280;48555;50.952;-0.120;2023-02-28T11:16:34;102683.84;;;7.69;69.26
61394;BME280;48555;50.952;-0.120;2023-02-28T11:19:04;102664.72;;;7.39;70.00
61394;BME280;48555;50.952;-0.120;2023-02-28T11:21:36;102679.25;;;7.77;69.01
61394;BME280;48555;50.952;-0.120;2023-02-28T11:24:17;102672.84;;;7.89;68.58
61394;BME280;48555;50.952;-0.120;2023-02-28T11:26:48;102668.41;;;7.91;68.62
61394;BME280;48555;50.952;-0.120;2023-02-28T11:29:24;102653.97;;;7.81;69.61
61394;BME280;48555;50.952;-0.120;2023-02-28T11:34:34;102645.47;;;7.44;69.77
61394;BME280;48555;50.952;-0.120;2023-02-28T11:37:01;102655.44;;;7.28;70.87
61394;BME280;48555;50.952;-0.120;2023-02-28T11:39:31;102649.84;;;7.73;69.80
61394;BME280;48555;50.952;-0.120;2023-02-28T11:56:03;102644.47;;;8.08;68.34
61394;BME280;48555;50.952;-0.120;2023-02-28T11:58:57;102638.19;;;8.15;68.11
61394;BME280;48555;50.952;-0.120;2023-02-28T12:06:52;102630.06;;;7.68;69.93
61394;BME280;48555;50.952;-0.120;2023-02-28T12:12:13;102607.41;;;7.70;70.12
61394;BME280;48555;50.952;-0.120;2023-02-28T12:25:24;102588.97;;;7.48;71.52
61394;BME280;48555;50.952;-0.120;2023-02-28T12:27:59;102582.91;;;7.77;71.21
61394;BME280;48555;50.952;-0.120;2023-02-28T12:30:35;102582.78;;;8.08;70.56
61394;BME280;48555;50.952;-0.120;2023-02-28T12:33:16;102586.34;;;8.06;70.21
61394;BME280;48555;50.952;-0.120;2023-02-28T12:35:56;102586.91;;;7.59;71.75
61394;BME280;48555;50.952;-0.120;2023-02-28T12:38:37;102582.22;;;7.70;71.81
61394;BME280;48555;50.952;-0.120;2023-02-28T12:43:38;102585.19;;;7.58;72.32
61394;BME280;48555;50.952;-0.120;2023-02-28T12:46:10;102577.72;;;7.76;72.05
61394;BME280;48555;50.952;-0.120;2023-02-28T12:48:40;102567.81;;;7.29;73.38
61394;BME280;48555;50.952;-0.120;2023-02-28T12:51:08;102560.63;;;7.08;74.67
61394;BME280;48555;50.952;-0.120;2023-02-28T12:56:11;102570.56;;;7.24;74.88
61394;BME280;48555;50.952;-0.120;2023-02-28T12:58:47;102553.59;;;7.11;75.54
61394;BME280;48555;50.952;-0.120;2023-02-28T13:04:19;102550.69;;;6.91;76.63
61394;BME280;48555;50.952;-0.120;2023-02-28T13:09:23;102543.19;;;7.11;77.20
61394;BME280;48555;50.952;-0.120;2023-02-28T13:11:50;102544.09;;;7.10;76.96
61394;BME280;48555;50.952;-0.120;2023-02-28T13:14:35;102539.66;;;7.14;77.24
61394;BME280;48555;50.952;-0.120;2023-02-28T13:19:37;102531.16;;;7.07;77.13
61394;BME280;48555;50.952;-0.120;2023-02-28T13:22:04;102539.47;;;7.20;76.91
61394;BME280;48555;50.952;-0.120;2023-02-28T13:29:36;102533.81;;;7.35;76.86
61394;BME280;48555;50.952;-0.120;2023-02-28T13:34:28;102526.88;;;7.06;77.32
61394;BME280;48555;50.952;-0.120;2023-02-28T13:39:52;102504.59;;;7.25;77.60
61394;BME280;48555;50.952;-0.120;2023-02-28T13:47:33;102482.44;;;7.42;77.17
61394;BME280;48555;50.952;-0.120;2023-02-28T13:50:32;102485.66;;;7.50;76.54
61394;BME280;48555;50.952;-0.120;2023-02-28T13:53:48;102494.09;;;7.28;77.13
61394;BME280;48555;50.952;-0.120;2023-02-28T13:56:26;102492.63;;;7.20;77.81
61394;BME280;48555;50.952;-0.120;2023-02-28T14:07:03;102472.56;;;7.23;77.48
61394;BME280;48555;50.952;-0.120;2023-02-28T14:11:55;102469.53;;;7.39;76.74
61394;BME280;48555;50.952;-0.120;2023-02-28T14:17:03;102460.63;;;7.46;77.12
61394;BME280;48555;50.952;-0.120;2023-02-28T14:19:31;102476.44;;;7.68;76.40
61394;BME280;48555;50.952;-0.120;2023-02-28T14:30:49;102477.22;;;7.70;76.20
61394;BME280;48555;50.952;-0.120;2023-02-28T14:38:24;102446.50;;;7.26;77.63
61394;BME280;48555;50.952;-0.120;2023-02-28T14:40:52;102450.59;;;7.34;78.08
61394;BME280;48555;50.952;-0.120;2023-02-28T14:43:25;102444.06;;;7.48;77.84
61394;BME280;48555;50.952;-0.120;2023-02-28T14:46:01;102432.91;;;7.45;77.54
61394;BME280;48555;50.952;-0.120;2023-02-28T14:48:28;102432.16;;;7.68;76.86
61394;BME280;48555;50.952;-0.120;2023-02-28T14:50:57;102437.19;;;7.46;77.52
61394;BME280;48555;50.952;-0.120;2023-02-28T14:53:27;102439.72;;;7.76;76.81
61394;BME280;48555;50.952;-0.120;2023-02-28T14:55:53;102439.72;;;7.76;76.81
61394;BME280;48555;50.952;-0.120;2023-02-28T14:58:28;102445.75;;;7.76;76.87
61394;BME280;48555;50.952;-0.120;2023-02-28T15:00:56;102441.66;;;7.69;76.67
61394;BME280;48555;50.952;-0.120;2023-02-28T15:03:22;102438.22;;;7.40;78.16